sensor_id;sensor_type;location;lat;lon;timestamp;P1;durP1;ratioP1;P2;durP2;ratioP2
76636;SDS011;65532;52.124;5.480;2023-10-08T00:00:32;13.48;;;2.67;;
76636;SDS011;65532;52.124;5.480;2023-10-08T00:03:16;11.82;;;2.88;;
76636;SDS011;65532;52.124;5.480;2023-10-08T00:05:47;11.95;;;2.25;;
76636;SDS011;65532;52.124;5.480;2023-10-08T00:08:16;9.20;;;2.70;;
76636;SDS011;65532;52.124;5.480;2023-10-08T00:10:43;9.65;;;2.50;;
76636;SDS011;65532;52.124;5.480;2023-10-08T00:13:11;12.50;;;3.65;;
76636;SDS011;65532;52.124;5.480;2023-10-08T00:15:39;10.70;;;3.00;;
76636;SDS011;65532;52.124;5.480;2023-10-08T00:18:32;6.22;;;2.17;;
76636;SDS011;65532;52.124;5.480;2023-10-08T00:20:59;8.98;;;2.45;;
76636;SDS011;65532;52.124;5.480;2023-10-08T00:23:46;12.05;;;2.20;;
76636;SDS011;65532;52.124;5.480;2023-10-08T00:26:19;6.55;;;1.83;;
76636;SDS011;65532;52.124;5.480;2023-10-08T00:28:58;10.32;;;2.85;;
76636;SDS011;65532;52.124;5.480;2023-10-08T00:31:48;7.95;;;2.80;;
76636;SDS011;65532;52.124;5.480;2023-10-08T00:34:16;8.43;;;2.25;;
76636;SDS011;65532;52.124;5.480;2023-10-08T00:36:46;9.20;;;2.17;;
76636;SDS011;65532;52.124;5.480;2023-10-08T00:39:14;10.02;;;2.85;;
76636;SDS011;65532;52.124;5.480;2023-10-08T00:41:43;9.90;;;2.90;;
76636;SDS011;65532;52.124;5.480;2023-10-08T00:44:11;10.10;;;2.15;;
76636;SDS011;65532;52.124;5.480;2023-10-08T00:46:42;8.82;;;2.15;;
76636;SDS011;65532;52.124;5.480;2023-10-08T00:49:21;13.32;;;3.88;;
76636;SDS011;65532;52.124;5.480;2023-10-08T00:51:49;10.23;;;3.05;;
76636;SDS011;65532;52.124;5.480;2023-10-08T00:54:35;6.97;;;2.85;;
76636;SDS011;65532;52.124;5.480;2023-10-08T00:57:19;10.70;;;3.95;;
76636;SDS011;65532;52.124;5.480;2023-10-08T00:59:48;12.57;;;2.00;;
76636;SDS011;65532;52.124;5.480;2023-10-08T01:02:24;9.55;;;2.72;;
76636;SDS011;65532;52.124;5.480;2023-10-08T01:04:54;9.63;;;2.63;;
76636;SDS011;65532;52.124;5.480;2023-10-08T01:07:22;11.07;;;2.08;;
76636;SDS011;65532;52.124;5.480;2023-10-08T01:09:50;6.93;;;2.58;;
76636;SDS011;65532;52.124;5.480;2023-10-08T01:12:18;9.40;;;2.00;;
76636;SDS011;65532;52.124;5.480;2023-10-08T01:15:01;10.75;;;2.78;;
76636;SDS011;65532;52.124;5.480;2023-10-08T01:17:54;12.90;;;2.53;;
76636;SDS011;65532;52.124;5.480;2023-10-08T01:20:27;14.85;;;3.90;;
76636;SDS011;65532;52.124;5.480;2023-10-08T01:25:30;14.02;;;1.88;;
76636;SDS011;65532;52.124;5.480;2023-10-08T01:27:58;13.00;;;2.88;;
76636;SDS011;65532;52.124;5.480;2023-10-08T01:33:00;11.10;;;2.50;;
76636;SDS011;65532;52.124;5.480;2023-10-08T01:35:29;10.02;;;3.13;;
76636;SDS011;65532;52.124;5.480;2023-10-08T01:37:58;9.85;;;3.50;;
76636;SDS011;65532;52.124;5.480;2023-10-08T01:40:26;11.35;;;1.92;;
76636;SDS011;65532;52.124;5.480;2023-10-08T01:42:55;11.43;;;3.20;;
76636;SDS011;65532;52.124;5.480;2023-10-08T01:45:26;11.10;;;2.85;;
76636;SDS011;65532;52.124;5.480;2023-10-08T01:47:53;12.60;;;3.08;;
76636;SDS011;65532;52.124;5.480;2023-10-08T01:50:21;14.25;;;2.35;;
76636;SDS011;65532;52.124;5.480;2023-10-08T01:52:48;12.32;;;2.65;;
76636;SDS011;65532;52.124;5.480;2023-10-08T01:55:15;11.27;;;3.45;;
76636;SDS011;65532;52.124;5.480;2023-10-08T01:57:45;9.05;;;2.75;;
76636;SDS011;65532;52.124;5.480;2023-10-08T02:00:12;11.73;;;2.97;;
76636;SDS011;65532;52.124;5.480;2023-10-08T02:02:46;10.90;;;3.08;;
76636;SDS011;65532;52.124;5.480;2023-10-08T02:05:14;9.55;;;3.00;;
76636;SDS011;65532;52.124;5.480;2023-10-08T02:07:41;8.07;;;2.47;;
76636;SDS011;65532;52.124;5.480;2023-10-08T02:10:10;12.10;;;1.83;;
76636;SDS011;65532;52.124;5.480;2023-10-08T02:12:37;10.82;;;3.22;;
76636;SDS011;65532;52.124;5.480;2023-10-08T02:15:04;10.48;;;3.55;;
76636;SDS011;65532;52.124;5.480;2023-10-08T02:17:33;10.25;;;3.08;;
76636;SDS011;65532;52.124;5.480;2023-10-08T02:20:00;12.00;;;3.60;;
76636;SDS011;65532;52.124;5.480;2023-10-08T02:22:31;13.20;;;2.40;;
76636;SDS011;65532;52.124;5.480;2023-10-08T02:25:02;11.73;;;3.35;;
76636;SDS011;65532;52.124;5.480;2023-10-08T02:27:29;10.10;;;2.88;;
76636;SDS011;65532;52.124;5.480;2023-10-08T02:29:59;11.25;;;2.67;;
76636;SDS011;65532;52.124;5.480;2023-10-08T02:32:26;10.00;;;2.75;;
76636;SDS011;65532;52.124;5.480;2023-10-08T02:34:53;11.48;;;2.53;;
76636;SDS011;65532;52.124;5.480;2023-10-08T02:37:20;9.15;;;2.47;;
76636;SDS011;65532;52.124;5.480;2023-10-08T02:39:46;6.53;;;1.67;;
76636;SDS011;65532;52.124;5.480;2023-10-08T02:42:13;9.38;;;2.45;;
76636;SDS011;65532;52.124;5.480;2023-10-08T02:44:40;9.77;;;2.33;;
76636;SDS011;65532;52.124;5.480;2023-10-08T02:47:09;11.25;;;2.83;;
76636;SDS011;65532;52.124;5.480;2023-10-08T02:49:39;9.85;;;2.65;;
76636;SDS011;65532;52.124;5.480;2023-10-08T02:52:07;8.10;;;2.35;;
76636;SDS011;65532;52.124;5.480;2023-10-08T02:54:35;12.98;;;3.88;;
76636;SDS011;65532;52.124;5.480;2023-10-08T02:57:04;12.25;;;4.03;;
76636;SDS011;65532;52.124;5.480;2023-10-08T02:59:35;11.45;;;2.20;;
76636;SDS011;65532;52.124;5.480;2023-10-08T03:02:11;13.80;;;3.90;;
76636;SDS011;65532;52.124;5.480;2023-10-08T03:04:46;8.95;;;2.45;;
76636;SDS011;65532;52.124;5.480;2023-10-08T03:07:19;11.98;;;3.13;;
76636;SDS011;65532;52.124;5.480;2023-10-08T03:09:51;12.90;;;3.53;;
76636;SDS011;65532;52.124;5.480;2023-10-08T03:12:29;9.85;;;2.50;;
76636;SDS011;65532;52.124;5.480;2023-10-08T03:14:59;8.05;;;3.20;;
76636;SDS011;65532;52.124;5.480;2023-10-08T03:17:45;6.38;;;2.90;;
76636;SDS011;65532;52.124;5.480;2023-10-08T03:20:15;13.43;;;2.22;;
76636;SDS011;65532;52.124;5.480;2023-10-08T03:23:01;13.27;;;2.97;;
76636;SDS011;65532;52.124;5.480;2023-10-08T03:25:31;12.20;;;2.97;;
76636;SDS011;65532;52.124;5.480;2023-10-08T03:28:00;14.32;;;4.90;;
76636;SDS011;65532;52.124;5.480;2023-10-08T03:30:26;12.65;;;4.45;;
76636;SDS011;65532;52.124;5.480;2023-10-08T03:32:53;17.45;;;3.38;;
76636;SDS011;65532;52.124;5.480;2023-10-08T03:35:25;10.05;;;2.15;;
76636;SDS011;65532;52.124;5.480;2023-10-08T03:37:57;13.52;;;3.80;;
76636;SDS011;65532;52.124;5.480;2023-10-08T03:40:46;7.90;;;3.33;;
76636;SDS011;65532;52.124;5.480;2023-10-08T03:43:15;12.38;;;3.15;;
76636;SDS011;65532;52.124;5.480;2023-10-08T03:45:49;8.32;;;3.88;;
76636;SDS011;65532;52.124;5.480;2023-10-08T03:48:26;9.00;;;3.85;;
76636;SDS011;65532;52.124;5.480;2023-10-08T03:50:56;9.32;;;2.08;;
76636;SDS011;65532;52.124;5.480;2023-10-08T03:53:32;8.85;;;2.83;;
76636;SDS011;65532;52.124;5.480;2023-10-08T03:56:22;10.25;;;3.30;;
76636;SDS011;65532;52.124;5.480;2023-10-08T03:58:49;9.88;;;3.28;;
76636;SDS011;65532;52.124;5.480;2023-10-08T04:01:15;10.02;;;3.72;;
76636;SDS011;65532;52.124;5.480;2023-10-08T04:03:45;11.07;;;3.30;;
76636;SDS011;65532;52.124;5.480;2023-10-08T04:06:21;13.57;;;4.05;;
76636;SDS011;65532;52.124;5.480;2023-10-08T04:09:00;16.25;;;3.50;;
76636;SDS011;65532;52.124;5.480;2023-10-08T04:11:36;12.88;;;3.17;;
76636;SDS011;65532;52.124;5.480;2023-10-08T04:14:30;13.63;;;4.88;;
76636;SDS011;65532;52.124;5.480;2023-10-08T04:16:57;15.95;;;3.75;;
76636;SDS011;65532;52.124;5.480;2023-10-08T04:19:25;12.38;;;4.40;;
76636;SDS011;65532;52.124;5.480;2023-10-08T04:21:53;11.98;;;3.00;;
76636;SDS011;65532;52.124;5.480;2023-10-08T04:24:24;18.00;;;3.55;;
76636;SDS011;65532;52.124;5.480;2023-10-08T04:27:00;6.35;;;2.25;;
76636;SDS011;65532;52.124;5.480;2023-10-08T04:29:29;15.52;;;3.47;;
76636;SDS011;65532;52.124;5.480;2023-10-08T04:31:59;15.05;;;2.83;;
76636;SDS011;65532;52.124;5.480;2023-10-08T04:34:38;12.73;;;2.38;;
76636;SDS011;65532;52.124;5.480;2023-10-08T04:37:10;18.67;;;3.55;;
76636;SDS011;65532;52.124;5.480;2023-10-08T04:39:39;9.60;;;2.72;;
76636;SDS011;65532;52.124;5.480;2023-10-08T04:42:13;13.93;;;3.28;;
76636;SDS011;65532;52.124;5.480;2023-10-08T04:44:40;19.63;;;3.58;;
76636;SDS011;65532;52.124;5.480;2023-10-08T04:47:07;8.55;;;2.83;;
76636;SDS011;65532;52.124;5.480;2023-10-08T04:49:54;13.02;;;2.15;;
76636;SDS011;65532;52.124;5.480;2023-10-08T04:52:22;12.38;;;3.80;;
76636;SDS011;65532;52.124;5.480;2023-10-08T04:54:51;17.52;;;3.20;;
76636;SDS011;65532;52.124;5.480;2023-10-08T04:57:20;6.10;;;2.30;;
76636;SDS011;65532;52.124;5.480;2023-10-08T04:59:52;9.27;;;2.42;;
76636;SDS011;65532;52.124;5.480;2023-10-08T05:02:24;10.27;;;3.35;;
76636;SDS011;65532;52.124;5.480;2023-10-08T05:04:50;14.73;;;3.03;;
76636;SDS011;65532;52.124;5.480;2023-10-08T05:07:17;7.72;;;2.60;;
76636;SDS011;65532;52.124;5.480;2023-10-08T05:09:48;10.93;;;3.15;;
76636;SDS011;65532;52.124;5.480;2023-10-08T05:12:29;8.40;;;2.35;;
76636;SDS011;65532;52.124;5.480;2023-10-08T05:14:59;12.63;;;3.15;;
76636;SDS011;65532;52.124;5.480;2023-10-08T05:17:41;12.50;;;2.10;;
76636;SDS011;65532;52.124;5.480;2023-10-08T05:20:20;11.35;;;1.90;;
76636;SDS011;65532;52.124;5.480;2023-10-08T05:23:10;8.73;;;2.58;;
76636;SDS011;65532;52.124;5.480;2023-10-08T05:25:57;9.20;;;1.60;;
76636;SDS011;65532;52.124;5.480;2023-10-08T05:28:24;5.25;;;2.20;;
76636;SDS011;65532;52.124;5.480;2023-10-08T05:30:51;6.30;;;1.58;;
76636;SDS011;65532;52.124;5.480;2023-10-08T05:33:39;8.02;;;1.45;;
76636;SDS011;65532;52.124;5.480;2023-10-08T05:36:28;4.30;;;1.42;;
76636;SDS011;65532;52.124;5.480;2023-10-08T05:39:01;4.65;;;1.08;;
76636;SDS011;65532;52.124;5.480;2023-10-08T05:41:42;5.60;;;1.42;;
76636;SDS011;65532;52.124;5.480;2023-10-08T05:44:18;9.32;;;1.13;;
76636;SDS011;65532;52.124;5.480;2023-10-08T05:46:44;7.97;;;0.95;;
76636;SDS011;65532;52.124;5.480;2023-10-08T05:49:21;9.73;;;1.25;;
76636;SDS011;65532;52.124;5.480;2023-10-08T05:54:30;5.85;;;0.82;;
76636;SDS011;65532;52.124;5.480;2023-10-08T05:57:01;6.45;;;1.00;;
76636;SDS011;65532;52.124;5.480;2023-10-08T05:59:38;3.35;;;0.90;;
76636;SDS011;65532;52.124;5.480;2023-10-08T06:02:22;3.97;;;1.17;;
76636;SDS011;65532;52.124;5.480;2023-10-08T06:05:16;4.68;;;0.70;;
76636;SDS011;65532;52.124;5.480;2023-10-08T06:07:54;3.22;;;0.50;;
76636;SDS011;65532;52.124;5.480;2023-10-08T06:10:22;3.63;;;0.88;;
76636;SDS011;65532;52.124;5.480;2023-10-08T06:13:03;4.30;;;0.80;;
76636;SDS011;65532;52.124;5.480;2023-10-08T06:15:56;3.97;;;1.08;;
76636;SDS011;65532;52.124;5.480;2023-10-08T06:18:24;5.50;;;0.52;;
76636;SDS011;65532;52.124;5.480;2023-10-08T06:20:53;2.72;;;0.93;;
76636;SDS011;65532;52.124;5.480;2023-10-08T06:23:25;3.15;;;0.70;;
76636;SDS011;65532;52.124;5.480;2023-10-08T06:25:54;1.80;;;0.57;;
76636;SDS011;65532;52.124;5.480;2023-10-08T06:28:37;2.42;;;0.35;;
76636;SDS011;65532;52.124;5.480;2023-10-08T06:31:05;5.63;;;1.40;;
76636;SDS011;65532;52.124;5.480;2023-10-08T06:33:39;4.75;;;1.13;;
76636;SDS011;65532;52.124;5.480;2023-10-08T06:36:07;3.72;;;0.80;;
76636;SDS011;65532;52.124;5.480;2023-10-08T06:38:42;3.13;;;0.73;;
76636;SDS011;65532;52.124;5.480;2023-10-08T06:41:10;5.35;;;1.15;;
76636;SDS011;65532;52.124;5.480;2023-10-08T06:43:49;8.48;;;1.42;;
76636;SDS011;65532;52.124;5.480;2023-10-08T06:46:16;1.98;;;0.80;;
76636;SDS011;65532;52.124;5.480;2023-10-08T06:48:45;3.58;;;1.13;;
76636;SDS011;65532;52.124;5.480;2023-10-08T06:51:12;2.97;;;0.63;;
76636;SDS011;65532;52.124;5.480;2023-10-08T06:53:40;2.05;;;0.50;;
76636;SDS011;65532;52.124;5.480;2023-10-08T06:56:07;2.85;;;0.80;;
76636;SDS011;65532;52.124;5.480;2023-10-08T06:58:38;2.45;;;0.75;;
76636;SDS011;65532;52.124;5.480;2023-10-08T07:01:11;2.20;;;0.43;;
76636;SDS011;65532;52.124;5.480;2023-10-08T07:03:39;2.83;;;1.00;;
76636;SDS011;65532;52.124;5.480;2023-10-08T07:06:06;2.28;;;0.90;;
76636;SDS011;65532;52.124;5.480;2023-10-08T07:08:52;2.55;;;0.65;;
76636;SDS011;65532;52.124;5.480;2023-10-08T07:11:22;2.40;;;0.82;;
76636;SDS011;65532;52.124;5.480;2023-10-08T07:13:49;3.33;;;1.30;;
76636;SDS011;65532;52.124;5.480;2023-10-08T07:16:17;2.25;;;0.52;;
76636;SDS011;65532;52.124;5.480;2023-10-08T07:18:44;3.65;;;0.70;;
76636;SDS011;65532;52.124;5.480;2023-10-08T07:21:21;5.13;;;1.42;;
76636;SDS011;65532;52.124;5.480;2023-10-08T07:24:11;3.78;;;0.75;;
76636;SDS011;65532;52.124;5.480;2023-10-08T07:26:43;3.85;;;0.90;;
76636;SDS011;65532;52.124;5.480;2023-10-08T07:29:14;3.90;;;1.33;;
76636;SDS011;65532;52.124;5.480;2023-10-08T07:31:45;2.60;;;0.80;;
76636;SDS011;65532;52.124;5.480;2023-10-08T07:34:18;2.95;;;0.60;;
76636;SDS011;65532;52.124;5.480;2023-10-08T07:36:52;2.80;;;1.10;;
76636;SDS011;65532;52.124;5.480;2023-10-08T07:39:21;3.42;;;1.10;;
76636;SDS011;65532;52.124;5.480;2023-10-08T07:41:53;4.95;;;1.77;;
76636;SDS011;65532;52.124;5.480;2023-10-08T07:44:21;3.80;;;1.00;;
76636;SDS011;65532;52.124;5.480;2023-10-08T07:46:51;2.78;;;0.38;;
76636;SDS011;65532;52.124;5.480;2023-10-08T07:49:20;2.90;;;0.63;;
76636;SDS011;65532;52.124;5.480;2023-10-08T07:51:49;3.38;;;0.65;;
76636;SDS011;65532;52.124;5.480;2023-10-08T07:56:49;3.72;;;1.52;;
76636;SDS011;65532;52.124;5.480;2023-10-08T07:59:18;3.45;;;1.02;;
76636;SDS011;65532;52.124;5.480;2023-10-08T08:01:44;4.47;;;1.05;;
76636;SDS011;65532;52.124;5.480;2023-10-08T08:04:11;3.35;;;0.82;;
76636;SDS011;65532;52.124;5.480;2023-10-08T08:06:50;3.20;;;1.30;;
76636;SDS011;65532;52.124;5.480;2023-10-08T08:09:18;3.22;;;1.27;;
76636;SDS011;65532;52.124;5.480;2023-10-08T08:11:46;3.20;;;0.88;;
76636;SDS011;65532;52.124;5.480;2023-10-08T08:14:16;4.80;;;1.73;;
76636;SDS011;65532;52.124;5.480;2023-10-08T08:16:43;4.00;;;1.20;;
76636;SDS011;65532;52.124;5.480;2023-10-08T08:19:14;5.95;;;1.42;;
76636;SDS011;65532;52.124;5.480;2023-10-08T08:21:43;2.60;;;0.88;;
76636;SDS011;65532;52.124;5.480;2023-10-08T08:24:12;2.65;;;0.88;;
76636;SDS011;65532;52.124;5.480;2023-10-08T08:26:39;2.60;;;0.40;;
76636;SDS011;65532;52.124;5.480;2023-10-08T08:29:07;2.65;;;0.93;;
76636;SDS011;65532;52.124;5.480;2023-10-08T08:31:35;7.65;;;0.60;;
76636;SDS011;65532;52.124;5.480;2023-10-08T08:34:02;3.50;;;0.90;;
76636;SDS011;65532;52.124;5.480;2023-10-08T08:36:34;3.58;;;0.52;;
76636;SDS011;65532;52.124;5.480;2023-10-08T08:39:05;2.67;;;0.52;;
76636;SDS011;65532;52.124;5.480;2023-10-08T08:41:38;3.20;;;0.77;;
76636;SDS011;65532;52.124;5.480;2023-10-08T08:44:04;3.20;;;0.90;;
76636;SDS011;65532;52.124;5.480;2023-10-08T08:46:34;4.45;;;1.55;;
76636;SDS011;65532;52.124;5.480;2023-10-08T08:49:05;2.65;;;0.70;;
76636;SDS011;65532;52.124;5.480;2023-10-08T08:51:36;3.80;;;1.00;;
76636;SDS011;65532;52.124;5.480;2023-10-08T08:54:04;3.60;;;0.63;;
76636;SDS011;65532;52.124;5.480;2023-10-08T08:56:35;5.10;;;0.98;;
76636;SDS011;65532;52.124;5.480;2023-10-08T09:01:31;2.20;;;1.00;;
76636;SDS011;65532;52.124;5.480;2023-10-08T09:04:00;4.03;;;1.25;;
76636;SDS011;65532;52.124;5.480;2023-10-08T09:06:32;2.88;;;0.93;;
76636;SDS011;65532;52.124;5.480;2023-10-08T09:09:00;3.72;;;1.40;;
76636;SDS011;65532;52.124;5.480;2023-10-08T09:11:46;4.13;;;0.70;;
76636;SDS011;65532;52.124;5.480;2023-10-08T09:14:12;3.30;;;1.48;;
76636;SDS011;65532;52.124;5.480;2023-10-08T09:16:39;4.05;;;1.00;;
76636;SDS011;65532;52.124;5.480;2023-10-08T09:19:06;3.35;;;0.90;;
76636;SDS011;65532;52.124;5.480;2023-10-08T09:21:38;5.15;;;1.20;;
76636;SDS011;65532;52.124;5.480;2023-10-08T09:24:05;4.18;;;1.25;;
76636;SDS011;65532;52.124;5.480;2023-10-08T09:26:37;5.22;;;1.23;;
76636;SDS011;65532;52.124;5.480;2023-10-08T09:29:06;9.60;;;1.23;;
76636;SDS011;65532;52.124;5.480;2023-10-08T09:31:34;3.50;;;1.50;;
76636;SDS011;65532;52.124;5.480;2023-10-08T09:34:03;3.20;;;1.35;;
76636;SDS011;65532;52.124;5.480;2023-10-08T09:36:29;2.67;;;1.08;;
76636;SDS011;65532;52.124;5.480;2023-10-08T09:39:02;3.30;;;1.02;;
76636;SDS011;65532;52.124;5.480;2023-10-08T09:41:31;3.38;;;1.85;;
76636;SDS011;65532;52.124;5.480;2023-10-08T09:43:59;4.03;;;2.03;;
76636;SDS011;65532;52.124;5.480;2023-10-08T09:46:29;3.60;;;0.93;;
76636;SDS011;65532;52.124;5.480;2023-10-08T09:48:59;3.08;;;0.85;;
76636;SDS011;65532;52.124;5.480;2023-10-08T09:51:30;3.20;;;1.40;;
76636;SDS011;65532;52.124;5.480;2023-10-08T09:54:07;3.03;;;1.05;;
76636;SDS011;65532;52.124;5.480;2023-10-08T09:56:40;4.82;;;2.33;;
76636;SDS011;65532;52.124;5.480;2023-10-08T09:59:09;3.38;;;1.48;;
76636;SDS011;65532;52.124;5.480;2023-10-08T10:01:39;3.40;;;1.38;;
76636;SDS011;65532;52.124;5.480;2023-10-08T10:04:11;3.78;;;1.75;;
76636;SDS011;65532;52.124;5.480;2023-10-08T10:06:41;2.20;;;0.93;;
76636;SDS011;65532;52.124;5.480;2023-10-08T10:09:12;3.25;;;1.00;;
76636;SDS011;65532;52.124;5.480;2023-10-08T10:11:48;3.10;;;1.35;;
76636;SDS011;65532;52.124;5.480;2023-10-08T10:14:16;3.97;;;1.35;;
76636;SDS011;65532;52.124;5.480;2023-10-08T10:16:47;3.67;;;1.55;;
76636;SDS011;65532;52.124;5.480;2023-10-08T10:19:35;3.47;;;2.47;;
76636;SDS011;65532;52.124;5.480;2023-10-08T10:22:02;5.10;;;2.40;;
76636;SDS011;65532;52.124;5.480;2023-10-08T10:24:35;4.63;;;2.50;;
76636;SDS011;65532;52.124;5.480;2023-10-08T10:27:13;5.95;;;1.83;;
76636;SDS011;65532;52.124;5.480;2023-10-08T10:29:41;4.97;;;1.52;;
76636;SDS011;65532;52.124;5.480;2023-10-08T10:32:14;4.43;;;2.20;;
76636;SDS011;65532;52.124;5.480;2023-10-08T10:34:42;6.40;;;2.17;;
76636;SDS011;65532;52.124;5.480;2023-10-08T10:37:10;4.53;;;1.75;;
76636;SDS011;65532;52.124;5.480;2023-10-08T10:39:52;3.58;;;1.60;;
76636;SDS011;65532;52.124;5.480;2023-10-08T10:42:27;4.78;;;2.25;;
76636;SDS011;65532;52.124;5.480;2023-10-08T10:44:54;5.43;;;2.85;;
76636;SDS011;65532;52.124;5.480;2023-10-08T10:47:22;5.47;;;2.75;;
76636;SDS011;65532;52.124;5.480;2023-10-08T10:49:53;9.30;;;2.95;;
76636;SDS011;65532;52.124;5.480;2023-10-08T10:52:26;5.57;;;2.13;;
76636;SDS011;65532;52.124;5.480;2023-10-08T10:55:18;4.88;;;2.47;;
76636;SDS011;65532;52.124;5.480;2023-10-08T10:57:57;3.88;;;1.90;;
76636;SDS011;65532;52.124;5.480;2023-10-08T11:00:37;3.67;;;1.63;;
76636;SDS011;65532;52.124;5.480;2023-10-08T11:03:08;5.22;;;2.78;;
76636;SDS011;65532;52.124;5.480;2023-10-08T11:05:51;4.20;;;1.63;;
76636;SDS011;65532;52.124;5.480;2023-10-08T11:08:21;6.05;;;1.55;;
76636;SDS011;65532;52.124;5.480;2023-10-08T11:10:51;5.18;;;1.70;;
76636;SDS011;65532;52.124;5.480;2023-10-08T11:13:19;4.78;;;2.30;;
76636;SDS011;65532;52.124;5.480;2023-10-08T11:15:49;7.90;;;3.47;;
76636;SDS011;65532;52.124;5.480;2023-10-08T11:18:21;4.55;;;1.75;;
76636;SDS011;65532;52.124;5.480;2023-10-08T11:20:50;5.07;;;1.45;;
76636;SDS011;65532;52.124;5.480;2023-10-08T11:23:32;5.38;;;2.20;;
76636;SDS011;65532;52.124;5.480;2023-10-08T11:26:02;5.30;;;1.90;;
76636;SDS011;65532;52.124;5.480;2023-10-08T11:28:34;5.35;;;1.83;;
76636;SDS011;65532;52.124;5.480;2023-10-08T11:31:10;5.88;;;1.90;;
76636;SDS011;65532;52.124;5.480;2023-10-08T11:33:38;3.80;;;2.40;;
76636;SDS011;65532;52.124;5.480;2023-10-08T11:36:07;3.85;;;1.25;;
76636;SDS011;65532;52.124;5.480;2023-10-08T11:39:10;4.35;;;1.48;;
76636;SDS011;65532;52.124;5.480;2023-10-08T11:41:57;3.35;;;1.63;;
76636;SDS011;65532;52.124;5.480;2023-10-08T11:44:33;8.60;;;1.77;;
76636;SDS011;65532;52.124;5.480;2023-10-08T11:47:03;4.60;;;1.75;;
76636;SDS011;65532;52.124;5.480;2023-10-08T11:49:38;4.47;;;2.63;;
76636;SDS011;65532;52.124;5.480;2023-10-08T11:52:13;3.30;;;1.15;;
76636;SDS011;65532;52.124;5.480;2023-10-08T11:54:42;4.18;;;1.77;;
76636;SDS011;65532;52.124;5.480;2023-10-08T11:57:10;5.30;;;1.02;;
76636;SDS011;65532;52.124;5.480;2023-10-08T11:59:37;3.25;;;1.02;;
76636;SDS011;65532;52.124;5.480;2023-10-08T12:02:06;3.75;;;1.13;;
76636;SDS011;65532;52.124;5.480;2023-10-08T12:04:32;3.38;;;1.55;;
76636;SDS011;65532;52.124;5.480;2023-10-08T12:06:59;2.92;;;1.38;;
76636;SDS011;65532;52.124;5.480;2023-10-08T12:09:29;5.10;;;1.58;;
76636;SDS011;65532;52.124;5.480;2023-10-08T12:11:55;3.85;;;1.05;;
76636;SDS011;65532;52.124;5.480;2023-10-08T12:14:23;3.72;;;1.58;;
76636;SDS011;65532;52.124;5.480;2023-10-08T12:16:56;3.08;;;1.40;;
76636;SDS011;65532;52.124;5.480;2023-10-08T12:19:26;4.00;;;0.95;;
76636;SDS011;65532;52.124;5.480;2023-10-08T12:21:52;4.95;;;0.85;;
76636;SDS011;65532;52.124;5.480;2023-10-08T12:24:19;3.17;;;0.60;;
76636;SDS011;65532;52.124;5.480;2023-10-08T12:26:46;4.20;;;1.45;;
76636;SDS011;65532;52.124;5.480;2023-10-08T12:29:13;5.32;;;1.45;;
76636;SDS011;65532;52.124;5.480;2023-10-08T12:31:46;4.25;;;1.38;;
76636;SDS011;65532;52.124;5.480;2023-10-08T12:34:14;3.15;;;1.20;;
76636;SDS011;65532;52.124;5.480;2023-10-08T12:36:41;5.00;;;1.35;;
76636;SDS011;65532;52.124;5.480;2023-10-08T12:39:08;4.10;;;1.08;;
76636;SDS011;65532;52.124;5.480;2023-10-08T12:41:41;3.67;;;1.13;;
76636;SDS011;65532;52.124;5.480;2023-10-08T12:44:10;3.47;;;0.95;;
76636;SDS011;65532;52.124;5.480;2023-10-08T12:46:38;2.80;;;0.77;;
76636;SDS011;65532;52.124;5.480;2023-10-08T12:49:04;3.08;;;0.73;;
76636;SDS011;65532;52.124;5.480;2023-10-08T12:51:31;9.23;;;1.52;;
76636;SDS011;65532;52.124;5.480;2023-10-08T12:54:01;4.25;;;1.13;;
76636;SDS011;65532;52.124;5.480;2023-10-08T12:56:38;1.85;;;0.85;;
76636;SDS011;65532;52.124;5.480;2023-10-08T12:59:11;2.88;;;0.95;;
76636;SDS011;65532;52.124;5.480;2023-10-08T13:01:47;3.60;;;1.00;;
76636;SDS011;65532;52.124;5.480;2023-10-08T13:04:17;2.33;;;0.43;;
76636;SDS011;65532;52.124;5.480;2023-10-08T13:06:53;3.10;;;0.90;;
76636;SDS011;65532;52.124;5.480;2023-10-08T13:09:24;2.92;;;0.90;;
76636;SDS011;65532;52.124;5.480;2023-10-08T13:11:51;4.70;;;0.30;;
76636;SDS011;65532;52.124;5.480;2023-10-08T13:14:18;1.60;;;0.30;;
76636;SDS011;65532;52.124;5.480;2023-10-08T13:16:45;2.85;;;0.90;;
76636;SDS011;65532;52.124;5.480;2023-10-08T13:19:15;2.45;;;0.80;;
76636;SDS011;65532;52.124;5.480;2023-10-08T13:21:42;3.35;;;1.02;;
76636;SDS011;65532;52.124;5.480;2023-10-08T13:24:10;3.08;;;0.85;;
76636;SDS011;65532;52.124;5.480;2023-10-08T13:26:37;1.80;;;0.90;;
76636;SDS011;65532;52.124;5.480;2023-10-08T13:29:05;3.17;;;0.45;;
76636;SDS011;65532;52.124;5.480;2023-10-08T13:31:32;3.60;;;1.10;;
76636;SDS011;65532;52.124;5.480;2023-10-08T13:34:03;3.20;;;0.70;;
76636;SDS011;65532;52.124;5.480;2023-10-08T13:36:37;2.88;;;0.88;;
76636;SDS011;65532;52.124;5.480;2023-10-08T13:39:05;4.63;;;1.23;;
76636;SDS011;65532;52.124;5.480;2023-10-08T13:41:37;4.80;;;1.42;;
76636;SDS011;65532;52.124;5.480;2023-10-08T13:44:08;3.70;;;1.50;;
76636;SDS011;65532;52.124;5.480;2023-10-08T13:46:34;4.43;;;1.83;;
76636;SDS011;65532;52.124;5.480;2023-10-08T13:49:02;3.35;;;0.70;;
76636;SDS011;65532;52.124;5.480;2023-10-08T13:51:32;5.57;;;1.05;;
76636;SDS011;65532;52.124;5.480;2023-10-08T13:54:01;3.58;;;0.70;;
76636;SDS011;65532;52.124;5.480;2023-10-08T13:56:33;3.17;;;1.00;;
76636;SDS011;65532;52.124;5.480;2023-10-08T13:59:00;6.60;;;0.88;;
76636;SDS011;65532;52.124;5.480;2023-10-08T14:01:45;7.53;;;1.63;;
76636;SDS011;65532;52.124;5.480;2023-10-08T14:04:19;3.60;;;0.65;;
76636;SDS011;65532;52.124;5.480;2023-10-08T14:06:47;4.57;;;1.40;;
76636;SDS011;65532;52.124;5.480;2023-10-08T14:09:21;5.47;;;1.02;;
76636;SDS011;65532;52.124;5.480;2023-10-08T14:11:49;6.25;;;1.23;;
76636;SDS011;65532;52.124;5.480;2023-10-08T14:14:19;3.97;;;1.80;;
76636;SDS011;65532;52.124;5.480;2023-10-08T14:16:50;3.47;;;0.90;;
76636;SDS011;65532;52.124;5.480;2023-10-08T14:19:20;3.40;;;0.68;;
76636;SDS011;65532;52.124;5.480;2023-10-08T14:21:55;6.13;;;1.30;;
76636;SDS011;65532;52.124;5.480;2023-10-08T14:24:26;2.65;;;0.63;;
76636;SDS011;65532;52.124;5.480;2023-10-08T14:26:58;4.32;;;1.00;;
76636;SDS011;65532;52.124;5.480;2023-10-08T14:29:29;7.75;;;2.13;;
76636;SDS011;65532;52.124;5.480;2023-10-08T14:31:56;3.50;;;1.50;;
76636;SDS011;65532;52.124;5.480;2023-10-08T14:34:23;2.75;;;0.77;;
76636;SDS011;65532;52.124;5.480;2023-10-08T14:37:08;3.50;;;0.82;;
76636;SDS011;65532;52.124;5.480;2023-10-08T14:39:54;3.40;;;1.15;;
76636;SDS011;65532;52.124;5.480;2023-10-08T14:42:39;4.10;;;0.90;;
76636;SDS011;65532;52.124;5.480;2023-10-08T14:45:31;3.28;;;1.48;;
76636;SDS011;65532;52.124;5.480;2023-10-08T14:48:02;3.95;;;0.90;;
76636;SDS011;65532;52.124;5.480;2023-10-08T14:50:33;3.75;;;0.65;;
76636;SDS011;65532;52.124;5.480;2023-10-08T14:53:00;4.18;;;1.30;;
76636;SDS011;65532;52.124;5.480;2023-10-08T14:55:28;4.40;;;0.63;;
76636;SDS011;65532;52.124;5.480;2023-10-08T14:57:55;3.10;;;1.23;;
76636;SDS011;65532;52.124;5.480;2023-10-08T15:00:22;2.75;;;0.60;;
76636;SDS011;65532;52.124;5.480;2023-10-08T15:02:53;4.45;;;1.90;;
76636;SDS011;65532;52.124;5.480;2023-10-08T15:05:21;4.38;;;1.27;;
76636;SDS011;65532;52.124;5.480;2023-10-08T15:07:49;3.55;;;1.30;;
76636;SDS011;65532;52.124;5.480;2023-10-08T15:10:19;8.48;;;1.77;;
76636;SDS011;65532;52.124;5.480;2023-10-08T15:12:48;3.55;;;2.08;;
76636;SDS011;65532;52.124;5.480;2023-10-08T15:15:18;3.88;;;2.50;;
76636;SDS011;65532;52.124;5.480;2023-10-08T15:17:45;3.25;;;1.10;;
76636;SDS011;65532;52.124;5.480;2023-10-08T15:20:14;5.40;;;1.63;;
76636;SDS011;65532;52.124;5.480;2023-10-08T15:22:43;2.83;;;1.20;;
76636;SDS011;65532;52.124;5.480;2023-10-08T15:25:11;5.35;;;1.85;;